North Monroeville, Ohio
Current Conditions -  °F | °C
As of 4:33 PM on Wednesday 26 Nov 2014 (Local Time) from KPCW Reporting Station
Overcast Overcast  
Wind Chill: 32°   Ceiling: 4300
Heat Index: 36°   Visibility: 10mi
Dew Point: 30°   Wind: 5mph
Humidity: 81%   Direction: 340°NNW
Pressure: 30.06"   Gusts: NA
Location:  41.2282°N, 82.706°W
Report Text: KPCW 262133Z AUTO 34004KT 10SM OVC043 02/M01 A3006 RMK AO2 $
Loading
Personal Weather Stations






























Interactive Weather Map New forecast layout! Learn more

10-Day Weather Forecast

Advertisements
Track Severe Weather on mobile